sensor_id;sensor_type;location;lat;lon;timestamp;temperature;humidity
8778;DHT22;4425;50.872;4.712;2022-11-15T00:01:25;11.10;99.90
8778;DHT22;4425;50.872;4.712;2022-11-15T00:03:52;11.10;99.90
8778;DHT22;4425;50.872;4.712;2022-11-15T00:06:21;11.10;99.90
8778;DHT22;4425;50.872;4.712;2022-11-15T00:08:48;11.20;99.90
8778;DHT22;4425;50.872;4.712;2022-11-15T00:11:16;11.20;99.90
8778;DHT22;4425;50.872;4.712;2022-11-15T00:13:43;11.20;99.90
8778;DHT22;4425;50.872;4.712;2022-11-15T00:16:11;11.20;99.90
8778;DHT22;4425;50.872;4.712;2022-11-15T00:18:40;11.20;99.90
8778;DHT22;4425;50.872;4.712;2022-11-15T00:21:10;11.20;99.90
8778;DHT22;4425;50.872;4.712;2022-11-15T00:23:37;11.20;99.90
8778;DHT22;4425;50.872;4.712;2022-11-15T00:26:08;11.20;99.90
8778;DHT22;4425;50.872;4.712;2022-11-15T00:28:37;11.30;99.90
8778;DHT22;4425;50.872;4.712;2022-11-15T00:31:07;11.30;99.90
8778;DHT22;4425;50.872;4.712;2022-11-15T00:33:45;11.30;99.90
8778;DHT22;4425;50.872;4.712;2022-11-15T00:36:15;11.30;99.90
8778;DHT22;4425;50.872;4.712;2022-11-15T00:38:42;11.50;99.90
8778;DHT22;4425;50.872;4.712;2022-11-15T00:41:09;11.30;99.90
8778;DHT22;4425;50.872;4.712;2022-11-15T00:43:37;11.30;99.90
8778;DHT22;4425;50.872;4.712;2022-11-15T00:46:05;11.30;99.90
8778;DHT22;4425;50.872;4.712;2022-11-15T00:48:34;11.40;99.90
8778;DHT22;4425;50.872;4.712;2022-11-15T00:51:03;11.40;99.90
8778;DHT22;4425;50.872;4.712;2022-11-15T00:53:32;11.40;99.90
8778;DHT22;4425;50.872;4.712;2022-11-15T00:55:59;11.40;99.90
8778;DHT22;4425;50.872;4.712;2022-11-15T00:58:26;11.40;99.90
8778;DHT22;4425;50.872;4.712;2022-11-15T01:00:55;11.40;99.90
8778;DHT22;4425;50.872;4.712;2022-11-15T01:03:22;11.40;99.90
8778;DHT22;4425;50.872;4.712;2022-11-15T01:05:50;11.40;99.90
8778;DHT22;4425;50.872;4.712;2022-11-15T01:08:18;11.40;99.90
8778;DHT22;4425;50.872;4.712;2022-11-15T01:10:45;11.40;99.90
8778;DHT22;4425;50.872;4.712;2022-11-15T01:13:12;11.50;99.90
8778;DHT22;4425;50.872;4.712;2022-11-15T01:15:40;11.50;99.90
8778;DHT22;4425;50.872;4.712;2022-11-15T01:18:09;11.50;99.90
8778;DHT22;4425;50.872;4.712;2022-11-15T01:20:39;11.50;99.90
8778;DHT22;4425;50.872;4.712;2022-11-15T01:23:06;11.50;99.90
8778;DHT22;4425;50.872;4.712;2022-11-15T01:25:36;11.50;99.90
8778;DHT22;4425;50.872;4.712;2022-11-15T01:28:04;11.50;99.90
8778;DHT22;4425;50.872;4.712;2022-11-15T01:30:31;11.50;99.90
8778;DHT22;4425;50.872;4.712;2022-11-15T01:32:58;11.70;99.90
8778;DHT22;4425;50.872;4.712;2022-11-15T01:35:25;11.60;99.90
8778;DHT22;4425;50.872;4.712;2022-11-15T01:37:54;11.60;99.90
8778;DHT22;4425;50.872;4.712;2022-11-15T01:40:21;11.60;99.90
8778;DHT22;4425;50.872;4.712;2022-11-15T01:42:50;11.80;99.90
8778;DHT22;4425;50.872;4.712;2022-11-15T01:45:17;11.60;99.90
8778;DHT22;4425;50.872;4.712;2022-11-15T01:47:46;11.70;99.90
8778;DHT22;4425;50.872;4.712;2022-11-15T01:50:17;11.70;99.90
8778;DHT22;4425;50.872;4.712;2022-11-15T01:52:47;11.70;99.90
8778;DHT22;4425;50.872;4.712;2022-11-15T01:55:17;11.70;99.90
8778;DHT22;4425;50.872;4.712;2022-11-15T01:57:50;11.70;99.90
8778;DHT22;4425;50.872;4.712;2022-11-15T02:00:17;11.70;99.90
8778;DHT22;4425;50.872;4.712;2022-11-15T02:02:44;11.70;99.90
8778;DHT22;4425;50.872;4.712;2022-11-15T02:05:13;11.80;99.90
8778;DHT22;4425;50.872;4.712;2022-11-15T02:07:40;11.80;99.90
8778;DHT22;4425;50.872;4.712;2022-11-15T02:10:09;11.80;99.90
8778;DHT22;4425;50.872;4.712;2022-11-15T02:12:41;11.80;99.90
8778;DHT22;4425;50.872;4.712;2022-11-15T02:15:13;11.80;99.90
8778;DHT22;4425;50.872;4.712;2022-11-15T02:17:52;11.70;99.90
8778;DHT22;4425;50.872;4.712;2022-11-15T02:20:39;11.70;99.90
8778;DHT22;4425;50.872;4.712;2022-11-15T02:23:33;11.80;99.90
8778;DHT22;4425;50.872;4.712;2022-11-15T02:26:23;11.80;99.90
8778;DHT22;4425;50.872;4.712;2022-11-15T02:28:58;11.80;99.90
8778;DHT22;4425;50.872;4.712;2022-11-15T02:31:33;11.80;99.90
8778;DHT22;4425;50.872;4.712;2022-11-15T02:34:10;11.80;99.90
8778;DHT22;4425;50.872;4.712;2022-11-15T02:36:44;11.70;99.90
8778;DHT22;4425;50.872;4.712;2022-11-15T02:39:21;11.70;99.90
8778;DHT22;4425;50.872;4.712;2022-11-15T02:41:56;11.80;99.90
8778;DHT22;4425;50.872;4.712;2022-11-15T02:44:24;11.90;99.90
8778;DHT22;4425;50.872;4.712;2022-11-15T02:46:56;11.70;99.90
8778;DHT22;4425;50.872;4.712;2022-11-15T02:49:47;11.80;99.90
8778;DHT22;4425;50.872;4.712;2022-11-15T02:52:15;11.80;99.90
8778;DHT22;4425;50.872;4.712;2022-11-15T02:54:53;11.70;99.90
8778;DHT22;4425;50.872;4.712;2022-11-15T02:57:32;11.70;99.90
8778;DHT22;4425;50.872;4.712;2022-11-15T03:00:05;11.70;99.90
8778;DHT22;4425;50.872;4.712;2022-11-15T03:05:36;11.70;99.90
8778;DHT22;4425;50.872;4.712;2022-11-15T03:08:10;11.80;99.90
8778;DHT22;4425;50.872;4.712;2022-11-15T03:10:49;11.70;99.90
8778;DHT22;4425;50.872;4.712;2022-11-15T03:13:24;11.70;99.90
8778;DHT22;4425;50.872;4.712;2022-11-15T03:15:57;11.70;99.90
8778;DHT22;4425;50.872;4.712;2022-11-15T03:18:33;11.70;99.90
8778;DHT22;4425;50.872;4.712;2022-11-15T03:21:04;11.80;99.90
8778;DHT22;4425;50.872;4.712;2022-11-15T03:23:32;11.70;99.90
8778;DHT22;4425;50.872;4.712;2022-11-15T03:26:01;11.60;99.90
8778;DHT22;4425;50.872;4.712;2022-11-15T03:28:32;11.70;99.90
8778;DHT22;4425;50.872;4.712;2022-11-15T03:31:01;11.70;99.90
8778;DHT22;4425;50.872;4.712;2022-11-15T03:33:54;11.60;99.90
8778;DHT22;4425;50.872;4.712;2022-11-15T03:36:25;11.70;99.90
8778;DHT22;4425;50.872;4.712;2022-11-15T03:38:54;11.70;99.90
8778;DHT22;4425;50.872;4.712;2022-11-15T03:41:26;11.60;99.90
8778;DHT22;4425;50.872;4.712;2022-11-15T03:43:59;11.60;99.90
8778;DHT22;4425;50.872;4.712;2022-11-15T03:46:39;11.60;99.90
8778;DHT22;4425;50.872;4.712;2022-11-15T03:49:12;11.70;99.90
8778;DHT22;4425;50.872;4.712;2022-11-15T03:51:41;11.60;99.90
8778;DHT22;4425;50.872;4.712;2022-11-15T03:54:12;11.60;99.90
8778;DHT22;4425;50.872;4.712;2022-11-15T03:56:41;11.60;99.90
8778;DHT22;4425;50.872;4.712;2022-11-15T03:59:08;11.60;99.90
8778;DHT22;4425;50.872;4.712;2022-11-15T04:01:35;11.50;99.90
8778;DHT22;4425;50.872;4.712;2022-11-15T04:04:02;11.50;99.90
8778;DHT22;4425;50.872;4.712;2022-11-15T04:06:34;11.50;99.90
8778;DHT22;4425;50.872;4.712;2022-11-15T04:09:02;11.50;99.90
8778;DHT22;4425;50.872;4.712;2022-11-15T04:11:30;11.50;99.90
8778;DHT22;4425;50.872;4.712;2022-11-15T04:13:57;11.50;99.90
8778;DHT22;4425;50.872;4.712;2022-11-15T04:16:24;11.50;99.90
8778;DHT22;4425;50.872;4.712;2022-11-15T04:18:51;11.60;99.90
8778;DHT22;4425;50.872;4.712;2022-11-15T04:21:35;11.50;99.90
8778;DHT22;4425;50.872;4.712;2022-11-15T04:24:21;11.50;99.90
8778;DHT22;4425;50.872;4.712;2022-11-15T04:26:48;11.40;99.90
8778;DHT22;4425;50.872;4.712;2022-11-15T04:29:17;11.50;99.90
8778;DHT22;4425;50.872;4.712;2022-11-15T04:32:05;11.40;99.90
8778;DHT22;4425;50.872;4.712;2022-11-15T04:34:32;11.40;99.90
8778;DHT22;4425;50.872;4.712;2022-11-15T04:37:01;11.40;99.90
8778;DHT22;4425;50.872;4.712;2022-11-15T04:39:45;11.40;99.90
8778;DHT22;4425;50.872;4.712;2022-11-15T04:42:13;11.50;99.90
8778;DHT22;4425;50.872;4.712;2022-11-15T04:44:41;11.30;99.90
8778;DHT22;4425;50.872;4.712;2022-11-15T04:47:08;11.30;99.90
8778;DHT22;4425;50.872;4.712;2022-11-15T04:49:36;11.40;99.90
8778;DHT22;4425;50.872;4.712;2022-11-15T04:52:06;11.20;99.90
8778;DHT22;4425;50.872;4.712;2022-11-15T04:54:34;11.20;99.90
8778;DHT22;4425;50.872;4.712;2022-11-15T04:57:01;11.10;99.90
8778;DHT22;4425;50.872;4.712;2022-11-15T04:59:28;11.20;99.90
8778;DHT22;4425;50.872;4.712;2022-11-15T05:01:55;11.10;99.90
8778;DHT22;4425;50.872;4.712;2022-11-15T05:04:22;11.20;99.90
8778;DHT22;4425;50.872;4.712;2022-11-15T05:06:49;11.10;99.90
8778;DHT22;4425;50.872;4.712;2022-11-15T05:09:19;11.10;99.90
8778;DHT22;4425;50.872;4.712;2022-11-15T05:11:48;11.00;99.90
8778;DHT22;4425;50.872;4.712;2022-11-15T05:14:16;11.00;99.90
8778;DHT22;4425;50.872;4.712;2022-11-15T05:16:45;11.00;99.90
8778;DHT22;4425;50.872;4.712;2022-11-15T05:19:12;11.00;99.90
8778;DHT22;4425;50.872;4.712;2022-11-15T05:21:39;10.90;99.90
8778;DHT22;4425;50.872;4.712;2022-11-15T05:24:08;11.00;99.90
8778;DHT22;4425;50.872;4.712;2022-11-15T05:26:37;10.90;99.90
8778;DHT22;4425;50.872;4.712;2022-11-15T05:29:04;10.90;99.90
8778;DHT22;4425;50.872;4.712;2022-11-15T05:31:31;10.90;99.90
8778;DHT22;4425;50.872;4.712;2022-11-15T05:34:00;10.90;99.90
8778;DHT22;4425;50.872;4.712;2022-11-15T05:36:31;10.80;99.90
8778;DHT22;4425;50.872;4.712;2022-11-15T05:38:59;10.80;99.90
8778;DHT22;4425;50.872;4.712;2022-11-15T05:41:35;10.80;99.90
8778;DHT22;4425;50.872;4.712;2022-11-15T05:44:08;10.80;99.90
8778;DHT22;4425;50.872;4.712;2022-11-15T05:46:38;10.70;99.90
8778;DHT22;4425;50.872;4.712;2022-11-15T05:49:08;10.70;99.90
8778;DHT22;4425;50.872;4.712;2022-11-15T05:51:41;10.70;99.90
8778;DHT22;4425;50.872;4.712;2022-11-15T05:54:11;10.60;99.90
8778;DHT22;4425;50.872;4.712;2022-11-15T05:56:39;10.50;99.90
8778;DHT22;4425;50.872;4.712;2022-11-15T05:59:08;10.50;99.90
8778;DHT22;4425;50.872;4.712;2022-11-15T06:01:39;10.40;99.90
8778;DHT22;4425;50.872;4.712;2022-11-15T06:04:07;10.40;99.90
8778;DHT22;4425;50.872;4.712;2022-11-15T06:06:34;10.30;99.90
8778;DHT22;4425;50.872;4.712;2022-11-15T06:09:02;10.30;99.90
8778;DHT22;4425;50.872;4.712;2022-11-15T06:11:31;10.30;99.90
8778;DHT22;4425;50.872;4.712;2022-11-15T06:13:58;10.30;99.90
8778;DHT22;4425;50.872;4.712;2022-11-15T06:16:27;10.30;99.90
8778;DHT22;4425;50.872;4.712;2022-11-15T06:18:53;10.30;99.90
8778;DHT22;4425;50.872;4.712;2022-11-15T06:21:21;10.20;99.90
8778;DHT22;4425;50.872;4.712;2022-11-15T06:23:48;10.20;99.90
8778;DHT22;4425;50.872;4.712;2022-11-15T06:26:15;10.10;99.90
8778;DHT22;4425;50.872;4.712;2022-11-15T06:28:41;10.10;99.90
8778;DHT22;4425;50.872;4.712;2022-11-15T06:31:10;10.20;99.90
8778;DHT22;4425;50.872;4.712;2022-11-15T06:33:39;10.00;99.90
8778;DHT22;4425;50.872;4.712;2022-11-15T06:36:11;10.00;99.90
8778;DHT22;4425;50.872;4.712;2022-11-15T06:38:42;10.00;99.90
8778;DHT22;4425;50.872;4.712;2022-11-15T06:41:10;9.90;99.90
8778;DHT22;4425;50.872;4.712;2022-11-15T06:43:38;9.90;99.90
8778;DHT22;4425;50.872;4.712;2022-11-15T06:46:06;9.90;99.90
8778;DHT22;4425;50.872;4.712;2022-11-15T06:48:34;9.80;99.90
8778;DHT22;4425;50.872;4.712;2022-11-15T06:51:04;9.80;99.90
8778;DHT22;4425;50.872;4.712;2022-11-15T06:53:32;9.80;99.90
8778;DHT22;4425;50.872;4.712;2022-11-15T06:55:59;9.80;99.90
8778;DHT22;4425;50.872;4.712;2022-11-15T06:58:33;9.70;99.90
8778;DHT22;4425;50.872;4.712;2022-11-15T07:01:01;9.70;99.90
8778;DHT22;4425;50.872;4.712;2022-11-15T07:03:28;9.70;99.90
8778;DHT22;4425;50.872;4.712;2022-11-15T07:05:57;9.70;99.90
8778;DHT22;4425;50.872;4.712;2022-11-15T07:08:27;9.70;99.90
8778;DHT22;4425;50.872;4.712;2022-11-15T07:10:55;9.80;99.90
8778;DHT22;4425;50.872;4.712;2022-11-15T07:13:24;9.70;99.90
8778;DHT22;4425;50.872;4.712;2022-11-15T07:15:54;9.80;99.90
8778;DHT22;4425;50.872;4.712;2022-11-15T07:18:29;9.60;99.90
8778;DHT22;4425;50.872;4.712;2022-11-15T07:21:01;9.60;99.90
8778;DHT22;4425;50.872;4.712;2022-11-15T07:23:30;9.60;99.90
8778;DHT22;4425;50.872;4.712;2022-11-15T07:25:58;9.70;99.90
8778;DHT22;4425;50.872;4.712;2022-11-15T07:28:26;9.60;99.90
8778;DHT22;4425;50.872;4.712;2022-11-15T07:30:54;9.70;99.90
8778;DHT22;4425;50.872;4.712;2022-11-15T07:33:24;9.60;99.90
8778;DHT22;4425;50.872;4.712;2022-11-15T07:35:52;9.70;99.90
8778;DHT22;4425;50.872;4.712;2022-11-15T07:38:20;9.70;99.90
8778;DHT22;4425;50.872;4.712;2022-11-15T07:40:56;9.70;99.90
8778;DHT22;4425;50.872;4.712;2022-11-15T07:43:24;9.70;99.90
8778;DHT22;4425;50.872;4.712;2022-11-15T07:45:53;9.80;99.90
8778;DHT22;4425;50.872;4.712;2022-11-15T07:48:22;9.80;99.90
8778;DHT22;4425;50.872;4.712;2022-11-15T07:51:04;9.90;99.90
8778;DHT22;4425;50.872;4.712;2022-11-15T07:53:31;9.90;99.90
8778;DHT22;4425;50.872;4.712;2022-11-15T07:56:01;9.90;99.90
8778;DHT22;4425;50.872;4.712;2022-11-15T07:58:28;9.90;99.90
8778;DHT22;4425;50.872;4.712;2022-11-15T08:01:02;10.00;99.90
8778;DHT22;4425;50.872;4.712;2022-11-15T08:03:29;9.80;99.90
8778;DHT22;4425;50.872;4.712;2022-11-15T08:05:58;9.90;99.90
8778;DHT22;4425;50.872;4.712;2022-11-15T08:08:25;10.10;99.90
8778;DHT22;4425;50.872;4.712;2022-11-15T08:10:52;10.00;99.90
8778;DHT22;4425;50.872;4.712;2022-11-15T08:13:21;10.00;99.90
8778;DHT22;4425;50.872;4.712;2022-11-15T08:15:48;10.00;99.90
8778;DHT22;4425;50.872;4.712;2022-11-15T08:18:16;10.00;99.90
8778;DHT22;4425;50.872;4.712;2022-11-15T08:20:43;9.90;99.90
8778;DHT22;4425;50.872;4.712;2022-11-15T08:23:11;10.00;99.90
8778;DHT22;4425;50.872;4.712;2022-11-15T08:25:40;10.10;99.90
8778;DHT22;4425;50.872;4.712;2022-11-15T08:28:09;10.10;99.90
8778;DHT22;4425;50.872;4.712;2022-11-15T08:30:42;10.10;99.90
8778;DHT22;4425;50.872;4.712;2022-11-15T08:33:11;10.10;99.90
8778;DHT22;4425;50.872;4.712;2022-11-15T08:35:39;10.10;99.90
8778;DHT22;4425;50.872;4.712;2022-11-15T08:38:06;10.20;99.90
8778;DHT22;4425;50.872;4.712;2022-11-15T08:40:33;10.20;99.90
8778;DHT22;4425;50.872;4.712;2022-11-15T08:43:00;10.20;99.90
8778;DHT22;4425;50.872;4.712;2022-11-15T08:45:28;10.30;99.90
8778;DHT22;4425;50.872;4.712;2022-11-15T08:47:57;10.30;99.90
8778;DHT22;4425;50.872;4.712;2022-11-15T08:50:24;10.40;99.90
8778;DHT22;4425;50.872;4.712;2022-11-15T08:52:51;10.40;99.90
8778;DHT22;4425;50.872;4.712;2022-11-15T08:55:19;10.40;99.90
8778;DHT22;4425;50.872;4.712;2022-11-15T08:57:46;10.60;99.90
8778;DHT22;4425;50.872;4.712;2022-11-15T09:00:14;10.40;99.90
8778;DHT22;4425;50.872;4.712;2022-11-15T09:02:41;10.50;99.90
8778;DHT22;4425;50.872;4.712;2022-11-15T09:05:10;10.50;99.90
8778;DHT22;4425;50.872;4.712;2022-11-15T09:07:38;10.60;99.90
8778;DHT22;4425;50.872;4.712;2022-11-15T09:10:05;10.70;99.90
8778;DHT22;4425;50.872;4.712;2022-11-15T09:12:33;10.70;99.90
8778;DHT22;4425;50.872;4.712;2022-11-15T09:15:00;10.70;99.90
8778;DHT22;4425;50.872;4.712;2022-11-15T09:17:27;10.90;99.90
8778;DHT22;4425;50.872;4.712;2022-11-15T09:19:56;10.90;99.90
8778;DHT22;4425;50.872;4.712;2022-11-15T09:22:25;10.80;99.90
8778;DHT22;4425;50.872;4.712;2022-11-15T09:24:52;10.90;99.90
8778;DHT22;4425;50.872;4.712;2022-11-15T09:27:19;10.90;99.90
8778;DHT22;4425;50.872;4.712;2022-11-15T09:29:46;10.90;99.90
8778;DHT22;4425;50.872;4.712;2022-11-15T09:32:13;11.00;99.90
8778;DHT22;4425;50.872;4.712;2022-11-15T09:34:40;11.10;99.90
8778;DHT22;4425;50.872;4.712;2022-11-15T09:37:08;11.10;99.90
8778;DHT22;4425;50.872;4.712;2022-11-15T09:39:37;11.10;99.90
8778;DHT22;4425;50.872;4.712;2022-11-15T09:42:25;11.10;99.90
8778;DHT22;4425;50.872;4.712;2022-11-15T09:45:10;11.10;99.90
8778;DHT22;4425;50.872;4.712;2022-11-15T09:48:17;11.10;99.90
8778;DHT22;4425;50.872;4.712;2022-11-15T09:50:51;11.20;99.90
8778;DHT22;4425;50.872;4.712;2022-11-15T09:53:26;11.20;99.90
8778;DHT22;4425;50.872;4.712;2022-11-15T09:55:59;11.30;99.90
8778;DHT22;4425;50.872;4.712;2022-11-15T09:58:35;11.40;99.90
8778;DHT22;4425;50.872;4.712;2022-11-15T10:01:09;11.50;99.90
8778;DHT22;4425;50.872;4.712;2022-11-15T10:03:40;11.40;99.90
8778;DHT22;4425;50.872;4.712;2022-11-15T10:06:13;11.40;99.90
8778;DHT22;4425;50.872;4.712;2022-11-15T10:08:55;11.50;99.90
8778;DHT22;4425;50.872;4.712;2022-11-15T10:11:29;11.40;99.90
8778;DHT22;4425;50.872;4.712;2022-11-15T10:14:01;11.70;99.90
8778;DHT22;4425;50.872;4.712;2022-11-15T10:16:52;11.60;99.90
8778;DHT22;4425;50.872;4.712;2022-11-15T10:19:25;11.70;99.90
8778;DHT22;4425;50.872;4.712;2022-11-15T10:22:00;11.80;99.90
8778;DHT22;4425;50.872;4.712;2022-11-15T10:24:34;11.80;99.90
8778;DHT22;4425;50.872;4.712;2022-11-15T10:27:10;11.80;99.90
8778;DHT22;4425;50.872;4.712;2022-11-15T10:29:43;11.90;99.90
8778;DHT22;4425;50.872;4.712;2022-11-15T10:32:10;11.90;99.90
8778;DHT22;4425;50.872;4.712;2022-11-15T10:34:37;11.90;99.90
8778;DHT22;4425;50.872;4.712;2022-11-15T10:37:05;11.90;99.90
8778;DHT22;4425;50.872;4.712;2022-11-15T10:39:32;11.90;99.90
8778;DHT22;4425;50.872;4.712;2022-11-15T10:42:17;11.90;99.90
8778;DHT22;4425;50.872;4.712;2022-11-15T10:44:46;11.90;99.90
8778;DHT22;4425;50.872;4.712;2022-11-15T10:47:32;11.90;99.90
8778;DHT22;4425;50.872;4.712;2022-11-15T10:50:04;11.90;99.90
8778;DHT22;4425;50.872;4.712;2022-11-15T10:52:34;12.00;99.90
8778;DHT22;4425;50.872;4.712;2022-11-15T10:55:21;12.00;99.90
8778;DHT22;4425;50.872;4.712;2022-11-15T10:57:53;12.00;99.90
8778;DHT22;4425;50.872;4.712;2022-11-15T11:00:30;12.10;99.90
8778;DHT22;4425;50.872;4.712;2022-11-15T11:02:59;12.20;99.90
8778;DHT22;4425;50.872;4.712;2022-11-15T11:05:29;12.20;99.90
8778;DHT22;4425;50.872;4.712;2022-11-15T11:07:59;12.20;99.90
8778;DHT22;4425;50.872;4.712;2022-11-15T11:10:27;12.30;99.90
8778;DHT22;4425;50.872;4.712;2022-11-15T11:13:12;12.40;99.90
8778;DHT22;4425;50.872;4.712;2022-11-15T11:15:45;12.40;99.90
8778;DHT22;4425;50.872;4.712;2022-11-15T11:18:20;12.50;99.90
8778;DHT22;4425;50.872;4.712;2022-11-15T11:20:56;12.70;99.90
8778;DHT22;4425;50.872;4.712;2022-11-15T11:23:38;12.70;99.90
8778;DHT22;4425;50.872;4.712;2022-11-15T11:29:19;12.70;99.90
8778;DHT22;4425;50.872;4.712;2022-11-15T11:31:52;12.70;99.90
8778;DHT22;4425;50.872;4.712;2022-11-15T11:34:33;12.70;99.90
8778;DHT22;4425;50.872;4.712;2022-11-15T11:37:10;12.70;99.90
8778;DHT22;4425;50.872;4.712;2022-11-15T11:39:50;12.70;99.90
8778;DHT22;4425;50.872;4.712;2022-11-15T11:42:40;12.70;99.90
8778;DHT22;4425;50.872;4.712;2022-11-15T11:45:22;12.80;99.90
8778;DHT22;4425;50.872;4.712;2022-11-15T11:48:03;12.80;99.90
8778;DHT22;4425;50.872;4.712;2022-11-15T11:50:38;12.90;99.90
8778;DHT22;4425;50.872;4.712;2022-11-15T11:53:12;13.00;99.90
8778;DHT22;4425;50.872;4.712;2022-11-15T11:55:44;13.00;99.90
8778;DHT22;4425;50.872;4.712;2022-11-15T11:58:16;13.00;99.90
8778;DHT22;4425;50.872;4.712;2022-11-15T12:00:54;13.00;99.90
8778;DHT22;4425;50.872;4.712;2022-11-15T12:03:26;13.00;99.90
8778;DHT22;4425;50.872;4.712;2022-11-15T12:05:59;13.10;99.90
8778;DHT22;4425;50.872;4.712;2022-11-15T12:08:33;13.20;99.90
8778;DHT22;4425;50.872;4.712;2022-11-15T12:11:09;13.10;99.90
8778;DHT22;4425;50.872;4.712;2022-11-15T12:13:38;13.10;99.90
8778;DHT22;4425;50.872;4.712;2022-11-15T12:16:12;13.20;99.90
8778;DHT22;4425;50.872;4.712;2022-11-15T12:18:46;13.20;99.90
8778;DHT22;4425;50.872;4.712;2022-11-15T12:21:22;13.20;99.90
8778;DHT22;4425;50.872;4.712;2022-11-15T12:23:54;13.20;99.90
8778;DHT22;4425;50.872;4.712;2022-11-15T12:26:26;13.10;99.90
8778;DHT22;4425;50.872;4.712;2022-11-15T12:28:58;13.20;99.90
8778;DHT22;4425;50.872;4.712;2022-11-15T12:31:36;13.20;99.90
8778;DHT22;4425;50.872;4.712;2022-11-15T12:34:15;13.20;99.90
8778;DHT22;4425;50.872;4.712;2022-11-15T12:36:57;13.20;99.90
8778;DHT22;4425;50.872;4.712;2022-11-15T12:42:44;13.20;99.90
8778;DHT22;4425;50.872;4.712;2022-11-15T12:45:29;13.10;99.90
8778;DHT22;4425;50.872;4.712;2022-11-15T12:51:00;13.10;99.90
8778;DHT22;4425;50.872;4.712;2022-11-15T12:53:29;13.20;99.90
8778;DHT22;4425;50.872;4.712;2022-11-15T12:56:21;13.20;99.90
8778;DHT22;4425;50.872;4.712;2022-11-15T12:58:55;13.30;99.90
8778;DHT22;4425;50.872;4.712;2022-11-15T13:01:57;13.20;99.90
8778;DHT22;4425;50.872;4.712;2022-11-15T13:04:27;13.10;99.90
8778;DHT22;4425;50.872;4.712;2022-11-15T13:06:58;13.30;99.90
8778;DHT22;4425;50.872;4.712;2022-11-15T13:09:52;13.20;99.90
8778;DHT22;4425;50.872;4.712;2022-11-15T13:18:37;13.40;99.90
8778;DHT22;4425;50.872;4.712;2022-11-15T13:21:20;13.60;99.90
8778;DHT22;4425;50.872;4.712;2022-11-15T13:24:13;13.60;99.90
8778;DHT22;4425;50.872;4.712;2022-11-15T13:26:43;13.70;99.90
8778;DHT22;4425;50.872;4.712;2022-11-15T13:29:20;13.70;99.90
8778;DHT22;4425;50.872;4.712;2022-11-15T13:31:47;13.60;99.90
8778;DHT22;4425;50.872;4.712;2022-11-15T13:34:33;13.60;99.90
8778;DHT22;4425;50.872;4.712;2022-11-15T13:37:02;13.70;99.90
8778;DHT22;4425;50.872;4.712;2022-11-15T13:39:33;13.60;99.90
8778;DHT22;4425;50.872;4.712;2022-11-15T13:42:03;13.60;99.90
8778;DHT22;4425;50.872;4.712;2022-11-15T13:44:33;13.60;99.90
8778;DHT22;4425;50.872;4.712;2022-11-15T13:47:03;13.60;99.90
8778;DHT22;4425;50.872;4.712;2022-11-15T13:49:32;13.60;99.90
8778;DHT22;4425;50.872;4.712;2022-11-15T13:52:01;13.70;99.90
8778;DHT22;4425;50.872;4.712;2022-11-15T13:54:35;13.60;99.90
8778;DHT22;4425;50.872;4.712;2022-11-15T13:57:10;13.60;99.90
8778;DHT22;4425;50.872;4.712;2022-11-15T13:59:45;13.60;99.90
8778;DHT22;4425;50.872;4.712;2022-11-15T14:02:15;13.60;99.90
8778;DHT22;4425;50.872;4.712;2022-11-15T14:04:46;13.60;99.90
8778;DHT22;4425;50.872;4.712;2022-11-15T14:07:17;13.70;99.90
8778;DHT22;4425;50.872;4.712;2022-11-15T14:09:48;13.60;99.90
8778;DHT22;4425;50.872;4.712;2022-11-15T14:12:36;13.60;99.90
8778;DHT22;4425;50.872;4.712;2022-11-15T14:15:24;13.60;99.90
8778;DHT22;4425;50.872;4.712;2022-11-15T14:17:52;13.60;99.90
8778;DHT22;4425;50.872;4.712;2022-11-15T14:20:26;13.70;99.90
8778;DHT22;4425;50.872;4.712;2022-11-15T14:22:58;13.80;99.90
8778;DHT22;4425;50.872;4.712;2022-11-15T14:25:29;13.60;99.90
8778;DHT22;4425;50.872;4.712;2022-11-15T14:28:13;13.70;99.90
8778;DHT22;4425;50.872;4.712;2022-11-15T14:30:44;13.60;99.90
8778;DHT22;4425;50.872;4.712;2022-11-15T14:33:22;13.60;99.90
8778;DHT22;4425;50.872;4.712;2022-11-15T14:35:49;13.60;99.90
8778;DHT22;4425;50.872;4.712;2022-11-15T14:38:16;13.50;99.90
8778;DHT22;4425;50.872;4.712;2022-11-15T14:40:45;13.40;99.90
8778;DHT22;4425;50.872;4.712;2022-11-15T14:43:13;13.40;99.90
8778;DHT22;4425;50.872;4.712;2022-11-15T14:45:42;13.30;99.90
8778;DHT22;4425;50.872;4.712;2022-11-15T14:48:09;13.30;99.90
8778;DHT22;4425;50.872;4.712;2022-11-15T14:50:37;13.20;99.90
8778;DHT22;4425;50.872;4.712;2022-11-15T14:53:10;13.20;99.90
8778;DHT22;4425;50.872;4.712;2022-11-15T14:55:39;13.10;99.90
8778;DHT22;4425;50.872;4.712;2022-11-15T14:58:09;13.10;99.90
8778;DHT22;4425;50.872;4.712;2022-11-15T15:00:38;13.10;99.90
8778;DHT22;4425;50.872;4.712;2022-11-15T15:03:07;13.10;99.90
8778;DHT22;4425;50.872;4.712;2022-11-15T15:05:39;13.10;99.90
8778;DHT22;4425;50.872;4.712;2022-11-15T15:08:07;13.10;99.90
8778;DHT22;4425;50.872;4.712;2022-11-15T15:10:36;13.10;99.90
8778;DHT22;4425;50.872;4.712;2022-11-15T15:13:05;13.10;99.90
8778;DHT22;4425;50.872;4.712;2022-11-15T15:15:40;13.10;99.90
8778;DHT22;4425;50.872;4.712;2022-11-15T15:18:10;13.00;99.90
8778;DHT22;4425;50.872;4.712;2022-11-15T15:20:39;13.00;99.90
8778;DHT22;4425;50.872;4.712;2022-11-15T15:23:14;12.90;99.90
8778;DHT22;4425;50.872;4.712;2022-11-15T15:25:41;12.90;99.90
8778;DHT22;4425;50.872;4.712;2022-11-15T15:28:09;12.90;99.90
8778;DHT22;4425;50.872;4.712;2022-11-15T15:30:41;12.90;99.90
8778;DHT22;4425;50.872;4.712;2022-11-15T15:33:09;12.80;99.90
8778;DHT22;4425;50.872;4.712;2022-11-15T15:35:37;12.80;99.90
8778;DHT22;4425;50.872;4.712;2022-11-15T15:38:04;12.80;99.90
8778;DHT22;4425;50.872;4.712;2022-11-15T15:40:32;12.80;99.90
8778;DHT22;4425;50.872;4.712;2022-11-15T15:43:00;12.80;99.90
8778;DHT22;4425;50.872;4.712;2022-11-15T15:45:28;12.80;99.90
8778;DHT22;4425;50.872;4.712;2022-11-15T15:47:56;12.90;99.90
8778;DHT22;4425;50.872;4.712;2022-11-15T15:50:25;12.80;99.90
8778;DHT22;4425;50.872;4.712;2022-11-15T15:52:54;13.00;99.90
8778;DHT22;4425;50.872;4.712;2022-11-15T15:55:24;12.80;99.90
8778;DHT22;4425;50.872;4.712;2022-11-15T15:57:52;12.80;99.90
8778;DHT22;4425;50.872;4.712;2022-11-15T16:00:20;12.80;99.90
8778;DHT22;4425;50.872;4.712;2022-11-15T16:02:49;13.00;99.90
8778;DHT22;4425;50.872;4.712;2022-11-15T16:05:18;12.70;99.90
8778;DHT22;4425;50.872;4.712;2022-11-15T16:07:46;12.70;99.90
8778;DHT22;4425;50.872;4.712;2022-11-15T16:10:22;12.70;99.90
8778;DHT22;4425;50.872;4.712;2022-11-15T16:12:51;12.60;99.90
8778;DHT22;4425;50.872;4.712;2022-11-15T16:15:18;12.60;99.90
8778;DHT22;4425;50.872;4.712;2022-11-15T16:17:49;12.60;99.90
8778;DHT22;4425;50.872;4.712;2022-11-15T16:20:31;12.60;99.90
8778;DHT22;4425;50.872;4.712;2022-11-15T16:23:01;12.50;99.90
8778;DHT22;4425;50.872;4.712;2022-11-15T16:25:28;12.50;99.90
8778;DHT22;4425;50.872;4.712;2022-11-15T16:27:55;12.50;99.90
8778;DHT22;4425;50.872;4.712;2022-11-15T16:30:22;12.50;99.90
8778;DHT22;4425;50.872;4.712;2022-11-15T16:32:50;12.40;99.90
8778;DHT22;4425;50.872;4.712;2022-11-15T16:35:18;12.50;99.90
8778;DHT22;4425;50.872;4.712;2022-11-15T16:37:47;12.50;99.90
8778;DHT22;4425;50.872;4.712;2022-11-15T16:40:26;12.40;99.90
8778;DHT22;4425;50.872;4.712;2022-11-15T16:42:56;12.40;99.90
8778;DHT22;4425;50.872;4.712;2022-11-15T16:45:26;12.30;99.90
8778;DHT22;4425;50.872;4.712;2022-11-15T16:47:56;12.30;99.90